Time;durP1;ratioP1;P1;durP2;ratioP2;P2;SDS_P1;SDS_P2;PMS_P1;PMS_P2;Temp;Humidity;BMP_temperature;BMP_pressure;BME280_temperature;BME280_humidity;BME280_pressure;Samples;Min_cycle;Max_cycle;Signal;HPM_P1;HPM_P2
2022/06/07 00:02:04;;;;;;;1.57;1.47;;;;;;;18.53;61.71;98743.31;5093445;28;39884;-78
2022/06/07 00:04:33;;;;;;;1.60;1.50;;;;;;;18.50;61.56;98743.59;5110150;28;41752;-76
2022/06/07 00:07:01;;;;;;;2.40;1.60;;;;;;;18.47;61.43;98738.53;5093350;28;43148;-77
2022/06/07 00:09:30;;;;;;;1.97;1.27;;;;;;;18.50;61.37;98748.97;5127244;27;42922;-78
2022/06/07 00:11:59;;;;;;;1.60;1.50;;;;;;;18.50;61.65;98743.59;5076001;28;40491;-78
2022/06/07 00:14:28;;;;;;;2.43;1.40;;;;;;;18.49;61.55;98745.44;5093169;28;41111;-77
2022/06/07 00:16:56;;;;;;;2.67;1.77;;;;;;;18.51;61.11;98745.28;5127351;27;43527;-78
2022/06/07 00:19:24;;;;;;;3.23;1.60;;;;;;;18.52;61.43;98746.97;5094332;28;42628;-78
2022/06/07 00:21:51;;;;;;;2.07;1.40;;;;;;;18.54;61.27;98750.38;5076524;28;38877;-78
2022/06/07 00:24:20;;;;;;;1.47;1.37;;;;;;;18.54;61.34;98751.22;5093991;28;41771;-78
2022/06/07 00:26:49;;;;;;;1.60;1.50;;;;;;;18.56;61.56;98748.34;5109882;28;42083;-75
2022/06/07 00:29:18;;;;;;;1.70;1.60;;;;;;;18.53;61.38;98751.34;5126855;27;42451;-76
2022/06/07 00:31:46;;;;;;;1.13;1.13;;;;;;;18.54;61.58;98755.72;5092992;28;40874;-78
2022/06/07 00:34:15;;;;;;;1.33;1.33;;;;;;;18.50;61.88;98749.81;5092506;28;41155;-77
2022/06/07 00:36:43;;;;;;;1.40;1.30;;;;;;;18.48;61.84;98751.78;5075813;28;43132;-76
2022/06/07 00:39:11;;;;;;;1.33;1.30;;;;;;;18.44;62.04;98749.53;5093144;28;42178;-76
2022/06/07 00:41:39;;;;;;;1.70;1.50;;;;;;;18.42;62.47;98751.56;5110196;28;38671;-78
2022/06/07 00:44:37;;;;;;;1.80;1.50;;;;;;;18.42;62.39;98748.88;5092608;28;42663;-78
2022/06/07 00:47:08;;;;;;;1.67;1.43;;;;;;;18.41;61.87;98755.22;5079845;28;41890;-76
2022/06/07 00:49:41;;;;;;;1.20;1.10;;;;;;;18.43;61.85;98747.84;5075482;28;41721;-78
2022/06/07 00:52:08;;;;;;;1.30;1.20;;;;;;;18.43;61.65;98750.53;5124185;27;40739;-77
2022/06/07 00:54:36;;;;;;;1.93;1.23;;;;;;;18.24;61.62;98721.97;5109297;28;41802;-76
2022/06/07 00:57:15;;;;;;;1.30;1.20;;;;;;;18.35;61.19;98739.72;5089701;28;42645;-76
2022/06/07 00:59:45;;;;;;;1.50;0.97;;;;;;;18.39;61.30;98757.19;5075362;28;41289;-78
2022/06/07 01:02:12;;;;;;;1.13;1.03;;;;;;;18.39;61.21;98751.84;5075603;28;38738;-77
2022/06/07 01:04:41;;;;;;;1.17;1.07;;;;;;;18.40;61.06;98758.91;5092169;28;41776;-75
2022/06/07 01:12:48;;;;;;;0.90;0.90;;;;;;;18.49;60.70;98758.00;5090560;28;40839;-78
2022/06/07 01:15:20;;;;;;;1.47;1.00;;;;;;;18.51;60.36;98762.22;5126204;27;42337;-76
2022/06/07 01:17:48;;;;;;;1.50;1.30;;;;;;;18.55;60.31;98758.22;5126242;27;43472;-78
2022/06/07 01:20:16;;;;;;;0.93;0.93;;;;;;;18.58;60.25;98762.50;5108782;28;43612;-76
2022/06/07 01:22:45;;;;;;;0.90;0.90;;;;;;;18.59;59.96;98759.66;5093487;28;40165;-76
2022/06/07 01:25:13;;;;;;;0.90;0.90;;;;;;;18.60;59.80;98758.69;5107764;28;42163;-76
2022/06/07 01:27:41;;;;;;;0.80;0.80;;;;;;;18.62;60.00;98759.38;5109105;28;42019;-77
2022/06/07 01:30:11;;;;;;;2.23;1.17;;;;;;;18.64;60.22;98767.28;5108625;28;41448;-77
2022/06/07 01:32:40;;;;;;;1.20;1.10;;;;;;;18.63;59.87;98766.44;5074965;28;38868;-77
2022/06/07 01:35:09;;;;;;;1.07;1.07;;;;;;;18.64;59.67;98769.97;5108738;28;40915;-75
2022/06/07 01:37:36;;;;;;;1.20;1.10;;;;;;;18.65;59.90;98766.28;5074975;28;41427;-77
2022/06/07 01:42:53;;;;;;;1.07;1.00;;;;;;;18.67;59.66;98760.78;5091811;28;39944;-76
2022/06/07 01:45:21;;;;;;;1.17;1.10;;;;;;;18.56;59.36;98751.88;5091541;28;41558;-77
2022/06/07 01:47:49;;;;;;;1.37;0.90;;;;;;;18.64;59.46;98767.28;5074693;28;41979;-75
2022/06/07 01:50:18;;;;;;;1.40;1.30;;;;;;;18.63;59.45;98765.59;5091423;28;42288;-76
2022/06/07 01:52:46;;;;;;;2.17;1.17;;;;;;;18.59;59.69;98762.34;5074871;28;40579;-76
2022/06/07 01:55:27;;;;;;;1.80;1.07;;;;;;;18.53;59.40;98756.72;5125072;27;41995;-77
2022/06/07 01:58:02;;;;;;;1.10;1.00;;;;;;;18.48;59.65;98759.00;5088678;28;43656;-75
2022/06/07 02:00:30;;;;;;;0.80;0.80;;;;;;;18.44;59.76;98752.22;5108104;28;41315;-77
2022/06/07 02:02:59;;;;;;;0.90;0.90;;;;;;;18.40;59.69;98748.16;5125739;27;41039;-75
2022/06/07 02:05:27;;;;;;;0.70;0.70;;;;;;;18.39;59.49;98752.69;5074335;28;41746;-77
2022/06/07 02:07:59;;;;;;;1.20;1.03;;;;;;;18.38;59.71;98744.78;5125391;27;44550;-77
2022/06/07 02:10:37;;;;;;;1.03;0.70;;;;;;;18.37;59.74;98743.09;5074549;28;41256;-77
2022/06/07 02:13:11;;;;;;;1.10;1.10;;;;;;;18.35;59.47;98740.56;5122783;27;40654;-78
2022/06/07 02:15:38;;;;;;;1.03;1.00;;;;;;;18.31;59.36;98733.78;5092435;28;41939;-78
2022/06/07 02:18:07;;;;;;;0.73;0.73;;;;;;;18.17;59.40;98721.75;5074063;28;41762;-76
2022/06/07 02:20:45;;;;;;;1.07;0.87;;;;;;;18.22;59.56;98746.25;5074294;28;41100;-77
2022/06/07 02:23:13;;;;;;;1.20;0.80;;;;;;;18.17;59.72;98742.34;5108095;28;39072;-76
2022/06/07 02:25:46;;;;;;;0.87;0.87;;;;;;;18.11;59.54;98743.75;5073903;28;41000;-77
2022/06/07 02:28:17;;;;;;;1.77;0.90;;;;;;;18.07;59.86;98742.34;5122205;27;42814;-76
2022/06/07 02:30:46;;;;;;;0.90;0.90;;;;;;;17.95;60.21;98739.00;5108011;28;41532;-75
2022/06/07 02:33:15;;;;;;;0.90;0.90;;;;;;;17.90;60.48;98729.72;5074428;28;38855;-76
2022/06/07 02:35:44;;;;;;;0.80;0.80;;;;;;;17.81;61.17;98725.22;5107462;28;40693;-76
2022/06/07 02:38:13;;;;;;;0.83;0.80;;;;;;;17.70;61.33;98717.34;5107869;28;41911;-76
2022/06/07 02:40:44;;;;;;;1.13;1.03;;;;;;;17.72;61.72;98731.44;5107718;28;42407;-75
2022/06/07 02:43:12;;;;;;;0.80;0.80;;;;;;;17.65;61.67;98725.81;5108111;28;39965;-77
2022/06/07 02:45:40;;;;;;;1.10;1.00;;;;;;;17.65;62.10;98720.47;5073872;28;40504;-76
2022/06/07 02:48:09;;;;;;;1.53;0.93;;;;;;;17.60;62.21;98723.53;5125154;27;43714;-78
2022/06/07 02:50:38;;;;;;;0.97;0.90;;;;;;;17.58;61.90;98725.50;5107860;27;41586;-75
2022/06/07 02:53:06;;;;;;;0.90;0.90;;;;;;;17.55;62.71;98725.81;5125204;27;39975;-75
2022/06/07 02:55:35;;;;;;;0.93;0.93;;;;;;;17.55;62.75;98736.53;5107509;28;41082;-77
2022/06/07 02:58:15;;;;;;;1.10;1.00;;;;;;;17.52;62.19;98726.09;5074386;28;41599;-76
2022/06/07 03:00:43;;;;;;;1.23;0.97;;;;;;;17.49;62.06;98723.69;5107380;28;41304;-75
2022/06/07 03:03:12;;;;;;;0.80;0.80;;;;;;;17.48;62.15;98721.16;5107545;28;39533;-76
2022/06/07 03:05:42;;;;;;;1.10;0.90;;;;;;;17.45;62.27;98724.09;5073644;28;42043;-76
2022/06/07 03:08:12;;;;;;;1.70;0.90;;;;;;;17.41;62.58;98720.88;5092012;28;43561;-76
2022/06/07 03:10:40;;;;;;;0.90;0.90;;;;;;;17.37;62.95;98719.47;5090352;28;43022;-77
2022/06/07 03:13:08;;;;;;;1.20;1.10;;;;;;;17.23;63.76;98690.47;5090385;28;39784;-75
2022/06/07 03:15:38;;;;;;;1.20;1.10;;;;;;;17.34;63.60;98711.72;5073376;28;40621;-76
2022/06/07 03:18:07;;;;;;;1.00;0.90;;;;;;;17.37;63.00;98722.16;5124782;27;43576;-78
2022/06/07 03:20:41;;;;;;;0.80;0.80;;;;;;;17.40;62.67;98732.59;5073718;28;42010;-77
2022/06/07 03:23:11;;;;;;;1.00;1.00;;;;;;;17.44;62.79;98733.13;5073575;28;40228;-77
2022/06/07 03:25:41;;;;;;;1.27;0.80;;;;;;;17.42;63.09;98721.75;5073138;28;43248;-77
2022/06/07 03:28:10;;;;;;;2.83;1.30;;;;;;;17.38;63.24;98714.97;5090451;28;42872;-75
2022/06/07 03:30:42;;;;;;;0.90;0.83;;;;;;;17.36;63.14;98709.75;5107183;28;41139;-78
2022/06/07 03:33:14;;;;;;;0.97;0.97;;;;;;;17.38;62.98;98712.28;5107529;28;38937;-77
2022/06/07 03:35:42;;;;;;;0.93;0.90;;;;;;;17.40;63.14;98719.19;5090038;28;42942;-77
2022/06/07 03:38:10;;;;;;;1.20;1.13;;;;;;;17.42;62.56;98711.88;5073445;28;41799;-76
2022/06/07 03:40:44;;;;;;;1.20;1.10;;;;;;;17.35;62.78;98708.06;5106804;28;42284;-75
2022/06/07 03:43:23;;;;;;;0.83;0.83;;;;;;;17.45;62.50;98713.41;5073696;28;38907;-77
2022/06/07 03:45:52;;;;;;;1.33;0.80;;;;;;;17.50;62.76;98713.81;5073064;28;40958;-77
2022/06/07 03:48:22;;;;;;;0.83;0.83;;;;;;;17.52;62.58;98720.75;5109430;28;42981;-76
2022/06/07 03:50:53;;;;;;;0.90;0.90;;;;;;;17.52;62.11;98715.38;5076575;28;41645;-78
2022/06/07 03:53:23;;;;;;;0.87;0.87;;;;;;;17.59;62.11;98718.31;5124934;27;39965;-77
2022/06/07 03:55:54;;;;;;;0.83;0.83;;;;;;;17.67;62.37;98717.66;5076522;28;41794;-75
2022/06/07 03:58:24;;;;;;;0.90;0.90;;;;;;;17.73;61.81;98722.41;5076634;28;42816;-76
2022/06/07 04:00:57;;;;;;;1.20;0.93;;;;;;;17.75;62.04;98737.34;5110011;28;41021;-75
2022/06/07 04:03:26;;;;;;;0.87;0.80;;;;;;;17.78;61.79;98730.88;5110527;28;39235;-77
2022/06/07 04:05:54;;;;;;;1.00;0.83;;;;;;;17.79;62.13;98737.94;5076341;28;40751;-75
2022/06/07 04:08:27;;;;;;;0.80;0.80;;;;;;;17.70;62.04;98717.34;5124368;27;43814;-78
2022/06/07 04:10:59;;;;;;;0.80;0.80;;;;;;;17.91;62.42;98744.81;5127283;27;43517;-75
2022/06/07 04:13:37;;;;;;;1.10;1.00;;;;;;;18.00;62.03;98756.47;5093013;28;41602;-76
2022/06/07 04:16:13;;;;;;;0.83;0.77;;;;;;;18.07;61.75;98752.22;5126546;27;42747;-75
2022/06/07 04:18:48;;;;;;;1.20;1.10;;;;;;;18.09;61.45;98751.09;5113889;28;41769;-76
2022/06/07 04:21:19;;;;;;;1.60;0.80;;;;;;;18.13;61.06;98747.13;5114427;28;42321;-75
2022/06/07 04:23:47;;;;;;;0.70;0.70;;;;;;;18.15;60.96;98742.47;5114429;28;39823;-76
2022/06/07 04:26:18;;;;;;;1.10;1.10;;;;;;;18.20;60.69;98736.66;5080443;28;41920;-77
2022/06/07 04:28:48;;;;;;;0.90;0.73;;;;;;;18.25;60.70;98743.28;5080466;28;42529;-76
2022/06/07 04:31:20;;;;;;;1.10;0.90;;;;;;;18.29;60.44;98746.53;5112412;28;41131;-76
2022/06/07 04:33:49;;;;;;;3.23;1.00;;;;;;;18.22;60.22;98740.03;5076296;28;40335;-77
2022/06/07 04:36:23;;;;;;;0.63;0.63;;;;;;;18.37;60.65;98754.66;5090123;28;41470;-78
2022/06/07 04:38:54;;;;;;;0.97;0.90;;;;;;;18.38;61.49;98750.16;5109226;28;42669;-78
2022/06/07 04:41:26;;;;;;;1.90;1.10;;;;;;;18.41;62.11;98755.22;5123854;27;43256;-76
2022/06/07 04:43:59;;;;;;;0.97;0.87;;;;;;;18.39;62.20;98757.19;5092986;28;38829;-75
2022/06/07 04:46:29;;;;;;;1.93;0.93;;;;;;;18.45;62.76;98756.59;5092520;28;42462;-77
2022/06/07 04:49:02;;;;;;;1.40;1.30;;;;;;;18.50;63.18;98748.97;5124147;27;43780;-77
2022/06/07 04:51:34;;;;;;;1.10;1.10;;;;;;;18.57;63.36;98760.78;5126687;27;42624;-77
2022/06/07 04:54:12;;;;;;;1.10;1.10;;;;;;;18.58;63.02;98751.78;5109323;28;38817;-76
2022/06/07 04:56:45;;;;;;;1.00;1.00;;;;;;;18.69;63.74;98764.97;5075969;28;42022;-76
2022/06/07 04:59:13;;;;;;;1.20;1.10;;;;;;;18.78;63.37;98769.47;5109398;27;41922;-79
2022/06/07 05:01:52;;;;;;;1.30;1.20;;;;;;;18.85;62.70;98759.81;5109869;28;42099;-75
2022/06/07 05:04:27;;;;;;;1.23;1.13;;;;;;;18.92;62.25;98757.34;5075459;28;39364;-76
2022/06/07 05:06:57;;;;;;;0.87;0.87;;;;;;;18.99;61.74;98761.16;5075724;28;40152;-79
2022/06/07 05:09:35;;;;;;;1.13;1.00;;;;;;;18.96;61.31;98745.34;5109293;28;41806;-78
2022/06/07 05:12:12;;;;;;;0.83;0.83;;;;;;;19.15;61.17;98763.16;5075667;28;42178;-77
2022/06/07 05:14:45;;;;;;;0.80;0.80;;;;;;;19.28;60.72;98766.31;5090961;28;40045;-77
2022/06/07 05:17:17;;;;;;;0.67;0.67;;;;;;;19.40;59.94;98775.84;5109751;28;40858;-77
2022/06/07 05:19:48;;;;;;;2.47;1.00;;;;;;;19.53;59.65;98781.69;5124953;27;42868;-77
2022/06/07 05:22:18;;;;;;;0.70;0.70;;;;;;;19.71;59.31;98785.19;5109485;28;42151;-77
2022/06/07 05:24:51;;;;;;;0.97;0.80;;;;;;;19.93;59.07;98778.47;5091784;28;38859;-75
2022/06/07 05:27:24;;;;;;;0.93;0.70;;;;;;;20.05;58.63;98781.75;5109029;28;41069;-76
2022/06/07 05:29:54;;;;;;;0.87;0.80;;;;;;;20.05;58.16;98781.75;5125907;27;43797;-76
2022/06/07 05:32:36;;;;;;;0.80;0.80;;;;;;;20.05;57.85;98792.50;5092099;28;42178;-78
2022/06/07 05:35:05;;;;;;;0.70;0.67;;;;;;;20.09;57.57;98800.09;5109003;28;38794;-76
2022/06/07 05:37:36;;;;;;;1.67;0.83;;;;;;;20.13;57.44;98799.81;5088961;28;42797;-77
2022/06/07 05:40:17;;;;;;;0.83;0.83;;;;;;;20.15;57.21;98793.28;5074585;28;41651;-77
2022/06/07 05:42:46;;;;;;;1.90;1.00;;;;;;;20.27;57.18;98805.47;5126052;27;42051;-75
2022/06/07 05:45:21;;;;;;;1.10;1.00;;;;;;;20.36;56.66;98809.91;5125376;27;39959;-75
2022/06/07 05:47:52;;;;;;;1.07;0.80;;;;;;;20.37;56.49;98814.28;5108433;28;40909;-75
2022/06/07 05:50:20;;;;;;;1.13;1.03;;;;;;;20.35;55.61;98818.97;5108327;28;41531;-75
2022/06/07 05:52:53;;;;;;;1.70;0.93;;;;;;;20.40;55.65;98818.47;5126307;27;40915;-76
2022/06/07 05:55:21;;;;;;;0.77;0.77;;;;;;;20.47;56.05;98824.09;5091604;28;40838;-78
2022/06/07 05:57:54;;;;;;;1.23;0.80;;;;;;;20.49;56.35;98822.09;5108642;28;40961;-76
2022/06/07 06:00:24;;;;;;;0.80;0.80;;;;;;;20.43;55.85;98812.78;5108363;28;41870;-75
2022/06/07 06:02:55;;;;;;;1.80;0.90;;;;;;;20.47;54.99;98818.69;5074614;28;41439;-76
2022/06/07 06:05:34;;;;;;;0.63;0.63;;;;;;;20.61;54.91;98815.44;5125665;27;40957;-77
2022/06/07 06:10:48;;;;;;;1.00;0.80;;;;;;;20.87;54.63;98810.84;5069388;28;42840;-76
2022/06/07 06:13:16;;;;;;;0.80;0.80;;;;;;;20.98;54.63;98812.41;5125508;27;43181;-75
2022/06/07 06:15:45;;;;;;;1.07;0.97;;;;;;;21.07;53.97;98817.63;5125512;27;40081;-78
2022/06/07 06:18:15;;;;;;;0.80;0.80;;;;;;;21.24;54.42;98817.72;5108232;28;40656;-78
2022/06/07 06:20:44;;;;;;;0.80;0.80;;;;;;;21.37;53.79;98810.00;5074103;28;43822;-80
2022/06/07 06:23:19;;;;;;;1.00;1.00;;;;;;;21.56;52.75;98827.72;5074671;28;41127;-76
2022/06/07 06:25:47;;;;;;;1.60;1.20;;;;;;;21.69;53.03;98823.53;5108103;28;38913;-76
2022/06/07 06:28:16;;;;;;;1.10;0.80;;;;;;;21.86;52.83;98819.84;5091251;28;41618;-78
2022/06/07 06:30:47;;;;;;;0.87;0.83;;;;;;;22.05;52.51;98828.63;5107671;28;41233;-76
2022/06/07 06:33:23;;;;;;;0.97;0.80;;;;;;;22.21;51.69;98823.22;5073710;28;42369;-79
2022/06/07 06:35:55;;;;;;;3.03;1.23;;;;;;;22.45;52.28;98814.25;5091191;28;40886;-76
2022/06/07 06:38:32;;;;;;;1.67;0.80;;;;;;;22.62;51.54;98823.16;5088108;28;41780;-78
2022/06/07 06:41:08;;;;;;;1.53;0.90;;;;;;;22.75;51.20;98826.16;5107756;28;43302;-75
2022/06/07 06:43:36;;;;;;;0.70;0.70;;;;;;;22.79;51.01;98838.28;5122002;27;42155;-75
2022/06/07 06:46:20;;;;;;;0.60;0.60;;;;;;;22.71;51.57;98830.19;5122219;27;39920;-76
2022/06/07 06:48:49;;;;;;;0.60;0.60;;;;;;;22.62;52.02;98831.25;5073733;28;40880;-76
2022/06/07 06:51:20;;;;;;;0.67;0.67;;;;;;;22.49;51.64;98831.78;5073845;28;42678;-78
2022/06/07 06:53:48;;;;;;;0.70;0.70;;;;;;;22.43;51.97;98830.59;5107598;28;41849;-78
2022/06/07 06:56:29;;;;;;;1.03;0.90;;;;;;;22.42;52.08;98837.00;5088167;28;39771;-78
2022/06/07 06:59:00;;;;;;;0.67;0.67;;;;;;;22.27;51.57;98827.06;5088276;28;41735;-76
2022/06/07 07:01:33;;;;;;;2.17;0.83;;;;;;;22.40;51.99;98835.50;5073369;28;44643;-74
2022/06/07 07:04:07;;;;;;;0.60;0.60;;;;;;;22.63;51.57;98846.41;5107511;28;40686;-76
2022/06/07 07:06:36;;;;;;;1.37;0.70;;;;;;;22.96;50.70;98839.94;5073942;28;38855;-77
2022/06/07 07:09:06;;;;;;;1.03;0.93;;;;;;;23.49;49.74;98841.03;5073511;28;40931;-75
2022/06/07 07:11:38;;;;;;;0.70;0.70;;;;;;;23.84;48.15;98843.19;5107597;28;41729;-77
2022/06/07 07:14:08;;;;;;;0.97;0.70;;;;;;;23.80;48.13;98843.72;5107292;28;41055;-78
2022/06/07 07:16:41;;;;;;;1.30;0.90;;;;;;;23.79;48.79;98837.47;5107296;28;40008;-75
2022/06/07 07:19:14;;;;;;;0.90;0.90;;;;;;;23.84;48.81;98835.06;5088337;28;42661;-79
2022/06/07 07:21:45;;;;;;;0.80;0.80;;;;;;;24.06;48.79;98833.38;5107451;28;42953;-77
2022/06/07 07:24:18;;;;;;;1.63;1.00;;;;;;;24.24;46.38;98833.03;5091878;28;42288;-78
2022/06/07 07:26:52;;;;;;;0.80;0.70;;;;;;;24.66;46.44;98846.00;5076894;28;39806;-79
2022/06/07 07:29:23;;;;;;;1.53;0.90;;;;;;;25.46;45.75;98847.94;5125978;27;41832;-77
2022/06/07 07:31:54;;;;;;;1.63;0.80;;;;;;;26.35;42.63;98841.13;5110937;28;42106;-77
2022/06/07 07:34:30;;;;;;;0.70;0.67;;;;;;;26.94;41.71;98865.22;5077109;28;41160;-76
2022/06/07 07:36:58;;;;;;;0.53;0.53;;;;;;;27.20;40.82;98868.03;5128458;27;40820;-77
2022/06/07 07:39:30;;;;;;;1.60;0.83;;;;;;;28.09;40.32;98871.50;5091407;28;43025;-80
2022/06/07 07:41:58;;;;;;;0.80;0.80;;;;;;;29.12;36.78;98899.16;5128095;27;43594;-78
2022/06/07 07:44:30;;;;;;;0.70;0.70;;;;;;;29.96;36.10;98902.66;5110425;28;40863;-78
2022/06/07 07:47:01;;;;;;;0.90;0.70;;;;;;;30.25;35.51;98901.19;5110734;28;40184;-76
2022/06/07 07:49:35;;;;;;;1.67;0.80;;;;;;;29.98;35.87;98894.25;5076588;28;42460;-80
2022/06/07 07:52:06;;;;;;;0.97;0.73;;;;;;;29.93;35.65;98885.81;5125074;27;42836;-80
2022/06/07 07:54:35;;;;;;;1.53;0.70;;;;;;;30.00;35.35;98894.84;5110276;28;44375;-80
2022/06/07 07:57:07;;;;;;;0.60;0.60;;;;;;;30.09;35.61;98885.34;5076581;28;38823;-79
2022/06/07 07:59:38;;;;;;;0.70;0.70;;;;;;;31.25;33.04;98903.94;5093413;28;40801;-78
2022/06/07 08:02:14;;;;;;;1.00;0.70;;;;;;;32.85;31.17;98912.44;5110123;28;42732;-76
2022/06/07 08:04:43;;;;;;;0.70;0.70;;;;;;;34.29;27.85;98914.19;5091898;28;42269;-78
2022/06/07 08:07:11;;;;;;;1.57;0.90;;;;;;;35.02;27.51;98935.22;5093456;28;40097;-80
2022/06/07 08:09:39;;;;;;;0.67;0.60;;;;;;;34.93;27.39;98925.72;5092977;28;42455;-78
2022/06/07 08:12:08;;;;;;;0.70;0.70;;;;;;;34.96;27.94;98919.75;5093278;28;43719;-77
2022/06/07 08:14:37;;;;;;;1.80;0.70;;;;;;;34.57;27.42;98916.88;5126982;27;42242;-77
2022/06/07 08:17:05;;;;;;;1.03;0.50;;;;;;;35.13;27.70;98914.19;5127347;27;40453;-80
2022/06/07 08:19:33;;;;;;;0.50;0.50;;;;;;;35.98;26.68;98925.53;5093273;28;41632;-79
2022/06/07 08:22:03;;;;;;;0.52;0.50;;;;;;;37.34;24.75;98925.09;5076147;28;41137;-79
2022/06/07 08:24:31;;;;;;;1.33;0.80;;;;;;;37.72;24.54;98929.44;5076055;28;42287;-81
2022/06/07 08:27:00;;;;;;;1.05;0.60;;;;;;;37.59;24.23;98932.69;5093296;28;38364;-80
2022/06/07 08:29:27;;;;;;;0.70;0.60;;;;;;;36.86;24.85;98917.03;5075778;28;40750;-78
2022/06/07 08:31:55;;;;;;;0.63;0.63;;;;;;;36.71;24.53;98905.88;5094025;28;42735;-78
2022/06/07 08:39:54;;;;;;;0.77;0.77;;;;;;;33.41;28.50;98884.38;5082894;28;41676;-78
2022/06/07 08:42:27;;;;;;;0.80;0.80;;;;;;;33.06;29.24;98852.31;5093016;28;43147;-80
2022/06/07 08:44:58;;;;;;;0.73;0.73;;;;;;;33.33;28.36;98879.25;5092450;28;41038;-78
2022/06/07 08:47:33;;;;;;;1.57;0.80;;;;;;;32.53;28.84;98873.50;5093986;28;39637;-78
2022/06/07 08:50:04;;;;;;;0.60;0.60;;;;;;;31.62;30.18;98867.25;5109512;28;41209;-77
2022/06/07 08:52:36;;;;;;;1.30;0.50;;;;;;;30.97;30.78;98856.00;5109428;28;42892;-79
2022/06/07 08:55:13;;;;;;;1.57;0.70;;;;;;;30.44;32.46;98843.88;5092367;28;41885;-77
2022/06/07 08:57:41;;;;;;;0.70;0.60;;;;;;;30.05;33.50;98840.38;5123617;27;39887;-80
2022/06/07 09:00:18;;;;;;;0.50;0.50;;;;;;;29.63;33.04;98845.47;5092715;28;42006;-80
2022/06/07 09:03:15;;;;;;;1.30;0.60;;;;;;;30.18;31.81;98845.75;5075603;28;42984;-80
2022/06/07 09:05:43;;;;;;;0.50;0.50;;;;;;;30.45;30.09;98845.53;5075352;28;41429;-78
2022/06/07 09:08:14;;;;;;;1.27;0.60;;;;;;;31.46;30.02;98848.72;5092573;28;40736;-77
2022/06/07 09:13:27;;;;;;;0.93;0.73;;;;;;;33.18;28.42;98864.09;5075231;28;41717;-79
2022/06/07 09:15:57;;;;;;;1.60;0.60;;;;;;;33.96;27.11;98859.13;5093444;28;43007;-77
2022/06/07 09:18:28;;;;;;;0.60;0.60;;;;;;;34.10;27.17;98860.47;5093619;28;40742;-77
2022/06/07 09:21:01;;;;;;;0.50;0.50;;;;;;;34.89;26.91;98859.34;5092419;28;42216;-79
2022/06/07 09:23:32;;;;;;;0.50;0.50;;;;;;;35.15;26.08;98863.28;5090345;28;42746;-77
2022/06/07 09:26:22;;;;;;;0.50;0.50;;;;;;;34.36;24.65;98873.63;5123217;27;42175;-79
2022/06/07 09:28:49;;;;;;;0.80;0.60;;;;;;;34.14;25.93;98858.88;5123230;27;40803;-76
2022/06/07 09:31:21;;;;;;;2.60;0.57;;;;;;;33.64;26.35;98867.81;5075065;28;40919;-79
2022/06/07 09:33:55;;;;;;;0.53;0.53;;;;;;;33.25;27.15;98849.44;5108808;28;41586;-76
2022/06/07 09:36:31;;;;;;;0.60;0.60;;;;;;;32.35;27.27;98853.34;5093497;28;42078;-79
2022/06/07 09:39:04;;;;;;;0.57;0.50;;;;;;;31.33;28.79;98838.75;5123526;27;39978;-79
2022/06/07 09:41:37;;;;;;;1.07;0.70;;;;;;;31.37;29.58;98836.41;5108795;28;40820;-77
2022/06/07 09:44:17;;;;;;;1.03;0.63;;;;;;;33.51;26.52;98862.59;5089041;28;42480;-77
2022/06/07 09:46:49;;;;;;;0.80;0.80;;;;;;;35.33;25.31;98864.09;5090061;28;42507;-78
2022/06/07 09:49:29;;;;;;;0.60;0.60;;;;;;;36.78;23.75;98867.84;5123520;27;40099;-78
2022/06/07 09:52:05;;;;;;;0.73;0.60;;;;;;;37.58;23.21;98872.16;5090068;28;41593;-79
2022/06/07 09:54:40;;;;;;;0.70;0.70;;;;;;;36.13;23.46;98874.41;5091727;28;43273;-78
2022/06/07 09:57:33;;;;;;;0.73;0.60;;;;;;;34.58;25.31;98847.03;5089853;28;43020;-78
2022/06/07 10:00:18;;;;;;;0.67;0.67;;;;;;;33.15;26.77;98859.06;5091262;28;38880;-76
2022/06/07 10:03:14;;;;;;;1.37;0.57;;;;;;;31.86;26.71;98831.75;5091667;28;40115;-78
2022/06/07 10:05:46;;;;;;;5.00;0.80;;;;;;;31.03;27.75;98833.19;5092605;28;43714;-80
2022/06/07 10:08:26;;;;;;;0.73;0.60;;;;;;;30.54;29.16;98828.66;5091470;28;42295;-79
2022/06/07 10:11:02;;;;;;;0.90;0.67;;;;;;;30.57;29.60;98792.69;5092706;28;39926;-76
2022/06/07 10:13:47;;;;;;;1.53;0.60;;;;;;;31.60;29.23;98809.13;5089356;28;41961;-77
2022/06/07 10:16:24;;;;;;;0.60;0.60;;;;;;;32.37;28.82;98812.84;5122467;27;42866;-76
2022/06/07 10:19:03;;;;;;;0.90;0.70;;;;;;;32.05;28.00;98808.69;5107802;28;41147;-79
2022/06/07 10:21:53;;;;;;;0.70;0.70;;;;;;;32.34;27.32;98813.31;5122430;27;40503;-79
2022/06/07 10:24:33;;;;;;;0.77;0.60;;;;;;;31.92;28.49;98814.38;5092264;28;41549;-79
2022/06/07 10:27:12;;;;;;;0.77;0.50;;;;;;;31.58;28.41;98804.97;5089343;28;43691;-78
2022/06/07 10:30:03;;;;;;;0.83;0.60;;;;;;;31.32;28.41;98803.41;5090536;28;43190;-79
2022/06/07 10:32:40;;;;;;;0.50;0.50;;;;;;;31.71;29.72;98797.41;5091269;28;40051;-76
2022/06/07 10:35:18;;;;;;;2.00;0.60;;;;;;;32.23;28.19;98805.06;5091297;28;40626;-79
2022/06/07 10:38:01;;;;;;;0.37;0.30;;;;;;;32.51;27.93;98807.13;5089035;28;43530;-76
2022/06/07 10:40:36;;;;;;;0.53;0.53;;;;;;;32.72;27.57;98803.81;5124433;27;43068;-77
2022/06/07 10:43:14;;;;;;;0.67;0.60;;;;;;;32.47;26.75;98817.72;5091370;28;39119;-77
2022/06/07 10:45:45;;;;;;;0.83;0.60;;;;;;;32.03;26.80;98808.91;5090480;28;43487;-76
2022/06/07 10:48:19;;;;;;;0.70;0.60;;;;;;;31.76;27.70;98811.25;5089058;28;42709;-79
2022/06/07 10:50:51;;;;;;;0.53;0.50;;;;;;;31.20;28.34;98783.38;5107966;28;42124;-78
2022/06/07 10:53:25;;;;;;;0.90;0.50;;;;;;;30.83;27.94;98807.97;5073838;28;40026;-79
2022/06/07 10:56:03;;;;;;;0.50;0.50;;;;;;;30.39;28.12;98813.66;5074442;28;41870;-78
2022/06/07 10:58:36;;;;;;;0.40;0.40;;;;;;;30.16;29.91;98793.25;5094464;28;41883;-76
2022/06/07 11:01:14;;;;;;;0.40;0.40;;;;;;;30.01;29.44;98795.47;5092508;28;42435;-76
2022/06/07 11:03:57;;;;;;;0.83;0.50;;;;;;;29.97;28.86;98802.44;5125493;27;40655;-78
2022/06/07 11:09:24;;;;;;;0.50;0.50;;;;;;;30.93;28.73;98794.59;5076748;28;41655;-77
2022/06/07 11:11:57;;;;;;;0.40;0.40;;;;;;;30.98;29.03;98802.97;5092322;28;43140;-77
2022/06/07 11:14:46;;;;;;;0.70;0.50;;;;;;;30.94;29.40;98795.44;5094369;28;39107;-79
2022/06/07 11:17:25;;;;;;;0.43;0.43;;;;;;;30.82;29.66;98787.16;5075476;28;41337;-79
2022/06/07 11:19:54;;;;;;;1.90;0.53;;;;;;;30.69;29.55;98790.03;5092694;28;42564;-79
2022/06/07 11:22:30;;;;;;;1.13;0.50;;;;;;;30.50;29.93;98788.31;5094157;28;43231;-77
2022/06/07 11:25:01;;;;;;;0.50;0.50;;;;;;;30.31;29.70;98798.38;5092959;28;39611;-80
2022/06/07 11:27:30;;;;;;;0.63;0.50;;;;;;;30.11;29.86;98790.34;5076957;28;40263;-76
2022/06/07 11:30:28;;;;;;;0.50;0.50;;;;;;;30.13;29.69;98798.31;5093869;28;43238;-76
2022/06/07 11:32:58;;;;;;;1.20;0.70;;;;;;;30.06;29.59;98795.63;5091940;28;42274;-77
2022/06/07 11:35:52;;;;;;;0.50;0.50;;;;;;;30.13;29.87;98792.88;5094981;28;40934;-79
2022/06/07 11:38:28;;;;;;;1.00;0.43;;;;;;;30.18;29.91;98796.59;5124854;27;41740;-77
2022/06/07 11:41:38;;;;;;;1.37;0.77;;;;;;;30.13;30.00;98784.66;5094986;28;43497;-80
2022/06/07 11:44:53;;;;;;;1.40;0.80;;;;;;;30.72;30.76;98775.91;5093724;28;41226;-78
2022/06/07 11:47:33;;;;;;;0.53;0.53;;;;;;;30.72;29.50;98781.38;5018799;28;38470;-78
2022/06/07 11:50:28;;;;;;;0.60;0.60;;;;;;;32.08;30.22;98765.22;5093341;28;41846;-77
2022/06/07 11:53:00;;;;;;;0.60;0.60;;;;;;;33.56;28.45;98772.09;5091588;28;43745;-77
2022/06/07 11:55:40;;;;;;;1.13;0.60;;;;;;;33.24;27.75;98779.16;5092948;28;43147;-78
2022/06/07 11:58:09;;;;;;;0.97;0.70;;;;;;;33.40;27.40;98781.94;5093883;28;39056;-78
2022/06/07 12:00:50;;;;;;;0.87;0.60;;;;;;;34.28;27.38;98780.53;5093619;28;41833;-80
2022/06/07 12:03:35;;;;;;;1.17;0.70;;;;;;;35.44;24.62;98789.59;5076447;28;44181;-84
2022/06/07 12:06:23;;;;;;;2.73;0.70;;;;;;;35.97;24.19;98785.22;5093605;28;41090;-80
2022/06/07 12:09:02;;;;;;;1.03;0.63;;;;;;;37.24;21.41;98811.78;5093026;28;39960;-80
2022/06/07 12:11:34;;;;;;;0.50;0.50;;;;;;;36.66;22.72;98797.06;5093333;28;40549;-79
2022/06/07 12:14:17;;;;;;;2.27;0.80;;;;;;;35.76;22.70;98792.44;5076142;28;42978;-79
2022/06/07 12:16:54;;;;;;;0.90;0.80;;;;;;;34.74;24.37;98783.97;5093380;28;43423;-79
2022/06/07 12:19:25;;;;;;;0.50;0.50;;;;;;;33.97;26.04;98770.09;5092315;28;40355;-79
2022/06/07 12:21:59;;;;;;;0.50;0.50;;;;;;;33.36;25.90;98769.78;5091410;28;43112;-80
2022/06/07 12:24:29;;;;;;;0.77;0.53;;;;;;;32.75;26.45;98771.25;5093070;28;41212;-76